Flight Track Log - Related Links

Times and Time Zones

All times are in EDT time to prevent confusion due to time zone crossing. See the N208D flight status page for this flight to view local times or setup timezone preferences in your user account.

Time Position Orientation Groundspeed Altitude Reporting Facility
EDT Latitude Longitude Course Direction KTS MPH feet Rate Location/Type
Fri 12:07:36 AM 40.7833 -74.5500 246° West 130 150 4,500  Level New York TRACON
Fri 12:08:36 AM 40.7667 -74.6000 246° West 145 167 4,500  Level New York TRACON
Fri 12:10:00 AM 40.6920 -74.6499 207° Southwest  Level FlightAware Approximate
Fri 12:17:00 AM 40.5395 -75.1218 263° West  Level FlightAware Approximate
Fri 12:18:00 AM 40.5357 -75.1996 281° West  Level FlightAware Approximate
Fri 12:19:00 AM 40.5467 -75.2770 281° West  Level FlightAware Approximate
Fri 12:20:00 AM 40.5525 -75.3552 273° West  Level FlightAware Approximate
Fri 12:21:00 AM 40.5560 -75.4337 273° West  Level FlightAware Approximate
Fri 12:22:00 AM 40.5594 -75.5123 273° West  Level FlightAware Approximate
Fri 12:23:00 AM 40.5628 -75.5909 273° West  Level FlightAware Approximate
Fri 12:24:00 AM 40.5661 -75.6695 273° West  Level FlightAware Approximate
Fri 12:25:00 AM 40.5500 -75.7444 250° West  Level FlightAware Approximate
Fri 12:26:00 AM 40.5299 -75.8185 250° West  Level FlightAware Approximate
Fri 12:27:00 AM 40.5093 -75.8924 249° West  Level FlightAware Approximate
Fri 12:28:00 AM 40.4883 -75.9660 249° West  Level FlightAware Approximate
Fri 12:29:00 AM 40.4749 -76.0424 259° West  Level FlightAware Approximate
Fri 12:30:00 AM 40.4610 -76.1185 248° West  Level FlightAware Approximate
Fri 12:31:00 AM 40.4386 -76.1914 248° West  Level FlightAware Approximate
Fri 12:32:00 AM 40.4162 -76.2643 248° West  Level FlightAware Approximate
Fri 12:33:00 AM 40.3945 -76.3374 251° West  Level FlightAware Approximate
Fri 12:34:00 AM 40.3746 -76.4115 251° West  Level FlightAware Approximate
Fri 12:35:00 AM 40.3548 -76.4855 251° West  Level FlightAware Approximate
Fri 12:36:00 AM 40.3349 -76.5595 251° West  Level FlightAware Approximate
Fri 12:37:00 AM 40.3149 -76.6334 251° West  Level FlightAware Approximate
Fri 12:38:00 AM 40.2949 -76.7073 250° West  Level FlightAware Approximate
Fri 12:39:00 AM 40.2854 -76.7830 275° West  Level FlightAware Approximate
Fri 12:40:00 AM 40.2904 -76.8611 275° West  Level FlightAware Approximate
Fri 12:41:00 AM 40.2952 -76.9392 275° West  Level FlightAware Approximate
Fri 12:42:00 AM 40.3000 -77.0174 270° West  Level FlightAware Approximate
Fri 12:43:00 AM 40.2878 -77.0423 123° Southeast  Level FlightAware Approximate
Fri 12:44:00 AM 40.2581 -76.9743 119° Southeast  Level FlightAware Approximate
Fri 12:45:00 AM 40.2304 -76.9051 108° East  Level FlightAware Approximate
Fri 12:46:00 AM 40.2167 -76.8500 108° East  Level FlightAware Approximate
Fri 12:47:00 AM 40.2171 -76.8514 108° East  Level Estimated
Fri 12:48:00 AM 40.2167 -76.8500 108° East  Level FlightAware Approximate
Fri 12:49:00 AM 40.2171 -76.8514 108° East  Level Estimated
Fri 12:50:00 AM 40.2167 -76.8500 108° East  Level FlightAware Approximate
Fri 12:51:00 AM 40.2171 -76.8514 108° East  Level Estimated
Fri 12:52:00 AM 40.2167 -76.8500 108° East  Level FlightAware Approximate
Fri 12:53:00 AM 40.2171 -76.8514 108° East  Level Estimated
Fri 12:54:00 AM 40.2167 -76.8500 108° East  Level FlightAware Approximate
Fri 12:55:00 AM 40.2171 -76.8514 108° East  Level Estimated
Fri 12:56:00 AM 40.2167 -76.8500 108° East  Level FlightAware Approximate
Fri 12:57:00 AM 40.2171 -76.8514 108° East  Level Estimated
Fri 12:58:00 AM 40.2167 -76.8500 108° East  Level FlightAware Approximate
Fri 12:59:00 AM 40.2171 -76.8514 108° East  Level Estimated
Fri 01:00:00 AM 40.2167 -76.8500 108° East  Level FlightAware Approximate
Fri 01:01:00 AM 40.2171 -76.8514 108° East  Level Estimated
Fri 01:02:00 AM 40.2167 -76.8500 108° East  Level FlightAware Approximate
Fri 01:03:00 AM 40.2171 -76.8514 108° East  Level Estimated
Fri 01:04:00 AM 40.2167 -76.8500 108° East  Level FlightAware Approximate
Fri 01:05:00 AM 40.2171 -76.8514 108° East  Level Estimated

Login

Don't have an account? Register now (free) for customized features, flight alerts, and more!